sensor_id;sensor_type;location;lat;lon;timestamp;P1;durP1;ratioP1;P2;durP2;ratioP2
59571;SDS011;59406;45.602;11.904;2022-12-07T00:01:07;41.43;;;18.00;;
59571;SDS011;59406;45.602;11.904;2022-12-07T00:03:37;32.22;;;17.13;;
59571;SDS011;59406;45.602;11.904;2022-12-07T00:06:04;43.92;;;19.55;;
59571;SDS011;59406;45.602;11.904;2022-12-07T00:08:31;35.70;;;17.65;;
59571;SDS011;59406;45.602;11.904;2022-12-07T00:11:05;32.17;;;16.95;;
59571;SDS011;59406;45.602;11.904;2022-12-07T00:13:33;29.53;;;17.03;;
59571;SDS011;59406;45.602;11.904;2022-12-07T00:16:04;26.13;;;13.95;;
59571;SDS011;59406;45.602;11.904;2022-12-07T00:18:31;33.50;;;17.95;;
59571;SDS011;59406;45.602;11.904;2022-12-07T00:21:04;24.30;;;14.90;;
59571;SDS011;59406;45.602;11.904;2022-12-07T00:23:31;25.13;;;14.10;;
59571;SDS011;59406;45.602;11.904;2022-12-07T00:26:05;26.50;;;14.40;;
59571;SDS011;59406;45.602;11.904;2022-12-07T00:28:54;32.15;;;14.27;;
59571;SDS011;59406;45.602;11.904;2022-12-07T00:31:22;33.38;;;16.23;;
59571;SDS011;59406;45.602;11.904;2022-12-07T00:33:50;32.67;;;16.90;;
59571;SDS011;59406;45.602;11.904;2022-12-07T00:36:17;35.30;;;18.00;;
59571;SDS011;59406;45.602;11.904;2022-12-07T00:38:45;49.65;;;17.73;;
59571;SDS011;59406;45.602;11.904;2022-12-07T00:41:11;26.33;;;14.18;;
59571;SDS011;59406;45.602;11.904;2022-12-07T00:43:39;49.15;;;18.15;;
59571;SDS011;59406;45.602;11.904;2022-12-07T00:46:06;41.63;;;17.03;;
59571;SDS011;59406;45.602;11.904;2022-12-07T00:48:33;26.58;;;13.63;;
59571;SDS011;59406;45.602;11.904;2022-12-07T00:50:59;27.40;;;15.15;;
59571;SDS011;59406;45.602;11.904;2022-12-07T00:53:26;30.58;;;14.80;;
59571;SDS011;59406;45.602;11.904;2022-12-07T00:55:52;43.55;;;17.40;;
59571;SDS011;59406;45.602;11.904;2022-12-07T00:58:20;47.67;;;17.07;;
59571;SDS011;59406;45.602;11.904;2022-12-07T01:00:47;39.15;;;16.85;;
59571;SDS011;59406;45.602;11.904;2022-12-07T01:03:16;35.17;;;15.65;;
59571;SDS011;59406;45.602;11.904;2022-12-07T01:05:52;34.03;;;15.70;;
59571;SDS011;59406;45.602;11.904;2022-12-07T01:08:19;32.20;;;15.85;;
59571;SDS011;59406;45.602;11.904;2022-12-07T01:10:59;31.63;;;15.63;;
59571;SDS011;59406;45.602;11.904;2022-12-07T01:13:29;28.67;;;15.70;;
59571;SDS011;59406;45.602;11.904;2022-12-07T01:15:57;23.30;;;14.02;;
59571;SDS011;59406;45.602;11.904;2022-12-07T01:18:25;23.00;;;14.07;;
59571;SDS011;59406;45.602;11.904;2022-12-07T01:21:06;27.08;;;13.48;;
59571;SDS011;59406;45.602;11.904;2022-12-07T01:23:37;25.77;;;13.37;;
59571;SDS011;59406;45.602;11.904;2022-12-07T01:26:04;28.48;;;14.70;;
59571;SDS011;59406;45.602;11.904;2022-12-07T01:28:32;22.92;;;13.90;;
59571;SDS011;59406;45.602;11.904;2022-12-07T01:31:03;22.40;;;13.80;;
59571;SDS011;59406;45.602;11.904;2022-12-07T01:33:31;24.48;;;14.57;;
59571;SDS011;59406;45.602;11.904;2022-12-07T01:36:06;22.53;;;13.67;;
59571;SDS011;59406;45.602;11.904;2022-12-07T01:38:47;24.95;;;14.38;;
59571;SDS011;59406;45.602;11.904;2022-12-07T01:41:17;22.05;;;13.27;;
59571;SDS011;59406;45.602;11.904;2022-12-07T01:46:37;21.33;;;13.43;;
59571;SDS011;59406;45.602;11.904;2022-12-07T01:49:08;27.03;;;14.93;;
59571;SDS011;59406;45.602;11.904;2022-12-07T01:51:39;22.20;;;13.90;;
59571;SDS011;59406;45.602;11.904;2022-12-07T01:54:07;23.23;;;14.60;;
59571;SDS011;59406;45.602;11.904;2022-12-07T01:56:35;21.20;;;13.77;;
59571;SDS011;59406;45.602;11.904;2022-12-07T01:59:02;22.27;;;13.63;;
59571;SDS011;59406;45.602;11.904;2022-12-07T02:01:28;22.03;;;13.87;;
59571;SDS011;59406;45.602;11.904;2022-12-07T02:03:54;22.52;;;14.02;;
59571;SDS011;59406;45.602;11.904;2022-12-07T02:06:21;22.55;;;12.82;;
59571;SDS011;59406;45.602;11.904;2022-12-07T02:08:50;22.48;;;14.63;;
59571;SDS011;59406;45.602;11.904;2022-12-07T02:11:18;24.20;;;14.73;;
59571;SDS011;59406;45.602;11.904;2022-12-07T02:13:45;20.70;;;13.60;;
59571;SDS011;59406;45.602;11.904;2022-12-07T02:19:04;20.02;;;12.38;;
59571;SDS011;59406;45.602;11.904;2022-12-07T02:25:03;21.10;;;13.17;;
59571;SDS011;59406;45.602;11.904;2022-12-07T02:27:46;27.90;;;15.52;;
59571;SDS011;59406;45.602;11.904;2022-12-07T02:30:21;21.20;;;13.45;;
59571;SDS011;59406;45.602;11.904;2022-12-07T02:35:28;19.67;;;13.38;;
59571;SDS011;59406;45.602;11.904;2022-12-07T02:38:04;19.80;;;11.70;;
59571;SDS011;59406;45.602;11.904;2022-12-07T02:43:28;23.17;;;14.13;;
59571;SDS011;59406;45.602;11.904;2022-12-07T02:46:01;20.45;;;11.55;;
59571;SDS011;59406;45.602;11.904;2022-12-07T02:48:31;17.13;;;11.75;;
59571;SDS011;59406;45.602;11.904;2022-12-07T02:50:59;22.17;;;12.80;;
59571;SDS011;59406;45.602;11.904;2022-12-07T02:56:16;20.60;;;12.32;;
59571;SDS011;59406;45.602;11.904;2022-12-07T03:03:57;19.90;;;11.13;;
59571;SDS011;59406;45.602;11.904;2022-12-07T03:06:36;19.30;;;11.50;;
59571;SDS011;59406;45.602;11.904;2022-12-07T03:09:20;22.17;;;12.23;;
59571;SDS011;59406;45.602;11.904;2022-12-07T03:11:55;21.33;;;11.43;;
59571;SDS011;59406;45.602;11.904;2022-12-07T03:14:30;19.58;;;11.68;;
59571;SDS011;59406;45.602;11.904;2022-12-07T03:17:13;24.23;;;12.70;;
59571;SDS011;59406;45.602;11.904;2022-12-07T03:19:43;21.10;;;12.15;;
59571;SDS011;59406;45.602;11.904;2022-12-07T03:22:11;21.42;;;11.82;;
59571;SDS011;59406;45.602;11.904;2022-12-07T03:24:43;20.75;;;11.45;;
59571;SDS011;59406;45.602;11.904;2022-12-07T03:27:16;25.92;;;13.65;;
59571;SDS011;59406;45.602;11.904;2022-12-07T03:29:51;22.80;;;12.63;;
59571;SDS011;59406;45.602;11.904;2022-12-07T03:35:03;17.88;;;10.80;;
59571;SDS011;59406;45.602;11.904;2022-12-07T03:37:37;20.73;;;12.20;;
59571;SDS011;59406;45.602;11.904;2022-12-07T03:42:57;22.43;;;11.93;;
59571;SDS011;59406;45.602;11.904;2022-12-07T03:45:51;21.58;;;12.23;;
59571;SDS011;59406;45.602;11.904;2022-12-07T03:48:33;22.45;;;11.93;;
59571;SDS011;59406;45.602;11.904;2022-12-07T03:53:34;25.13;;;12.87;;
59571;SDS011;59406;45.602;11.904;2022-12-07T03:56:06;23.48;;;12.75;;
59571;SDS011;59406;45.602;11.904;2022-12-07T03:58:34;20.45;;;10.75;;
59571;SDS011;59406;45.602;11.904;2022-12-07T04:01:01;21.35;;;11.55;;
59571;SDS011;59406;45.602;11.904;2022-12-07T04:03:27;21.43;;;11.40;;
59571;SDS011;59406;45.602;11.904;2022-12-07T04:05:53;17.20;;;9.30;;
59571;SDS011;59406;45.602;11.904;2022-12-07T04:08:19;21.70;;;12.10;;
59571;SDS011;59406;45.602;11.904;2022-12-07T04:10:45;20.98;;;12.25;;
59571;SDS011;59406;45.602;11.904;2022-12-07T04:13:11;22.23;;;12.48;;
59571;SDS011;59406;45.602;11.904;2022-12-07T04:15:37;22.03;;;12.80;;
59571;SDS011;59406;45.602;11.904;2022-12-07T04:18:03;17.90;;;10.75;;
59571;SDS011;59406;45.602;11.904;2022-12-07T04:20:29;17.80;;;10.68;;
59571;SDS011;59406;45.602;11.904;2022-12-07T04:22:55;20.07;;;12.53;;
59571;SDS011;59406;45.602;11.904;2022-12-07T04:25:21;24.33;;;12.30;;
59571;SDS011;59406;45.602;11.904;2022-12-07T04:27:47;21.58;;;10.75;;
59571;SDS011;59406;45.602;11.904;2022-12-07T04:30:13;17.33;;;10.50;;
59571;SDS011;59406;45.602;11.904;2022-12-07T04:32:39;20.92;;;11.98;;
59571;SDS011;59406;45.602;11.904;2022-12-07T04:35:06;23.00;;;13.07;;
59571;SDS011;59406;45.602;11.904;2022-12-07T04:37:32;20.98;;;11.05;;
59571;SDS011;59406;45.602;11.904;2022-12-07T04:39:58;18.88;;;9.82;;
59571;SDS011;59406;45.602;11.904;2022-12-07T04:42:24;19.85;;;11.98;;
59571;SDS011;59406;45.602;11.904;2022-12-07T04:44:50;22.87;;;13.07;;
59571;SDS011;59406;45.602;11.904;2022-12-07T04:47:16;22.58;;;13.60;;
59571;SDS011;59406;45.602;11.904;2022-12-07T04:49:42;21.08;;;12.55;;
59571;SDS011;59406;45.602;11.904;2022-12-07T04:52:08;18.63;;;11.30;;
59571;SDS011;59406;45.602;11.904;2022-12-07T04:54:34;17.88;;;10.40;;
59571;SDS011;59406;45.602;11.904;2022-12-07T04:57:00;23.63;;;13.77;;
59571;SDS011;59406;45.602;11.904;2022-12-07T04:59:26;14.93;;;8.95;;
59571;SDS011;59406;45.602;11.904;2022-12-07T05:01:52;17.63;;;10.27;;
59571;SDS011;59406;45.602;11.904;2022-12-07T05:04:18;22.20;;;12.53;;
59571;SDS011;59406;45.602;11.904;2022-12-07T05:06:44;19.25;;;10.88;;
59571;SDS011;59406;45.602;11.904;2022-12-07T05:09:11;17.17;;;9.85;;
59571;SDS011;59406;45.602;11.904;2022-12-07T05:11:37;20.38;;;11.00;;
59571;SDS011;59406;45.602;11.904;2022-12-07T05:14:04;20.50;;;11.73;;
59571;SDS011;59406;45.602;11.904;2022-12-07T05:16:42;25.70;;;12.67;;
59571;SDS011;59406;45.602;11.904;2022-12-07T05:19:09;24.13;;;13.45;;
59571;SDS011;59406;45.602;11.904;2022-12-07T05:21:36;19.83;;;12.30;;
59571;SDS011;59406;45.602;11.904;2022-12-07T05:24:02;17.73;;;10.50;;
59571;SDS011;59406;45.602;11.904;2022-12-07T05:26:28;25.00;;;12.13;;
59571;SDS011;59406;45.602;11.904;2022-12-07T05:28:55;18.30;;;10.17;;
59571;SDS011;59406;45.602;11.904;2022-12-07T05:31:22;18.88;;;10.70;;
59571;SDS011;59406;45.602;11.904;2022-12-07T05:33:49;18.52;;;10.57;;
59571;SDS011;59406;45.602;11.904;2022-12-07T05:36:15;21.88;;;13.23;;
59571;SDS011;59406;45.602;11.904;2022-12-07T05:38:41;17.93;;;10.17;;
59571;SDS011;59406;45.602;11.904;2022-12-07T05:41:07;20.63;;;11.73;;
59571;SDS011;59406;45.602;11.904;2022-12-07T05:43:54;17.10;;;8.77;;
59571;SDS011;59406;45.602;11.904;2022-12-07T05:46:20;21.15;;;11.75;;
59571;SDS011;59406;45.602;11.904;2022-12-07T05:48:47;22.20;;;11.90;;
59571;SDS011;59406;45.602;11.904;2022-12-07T05:51:12;19.38;;;10.65;;
59571;SDS011;59406;45.602;11.904;2022-12-07T05:53:38;21.83;;;12.65;;
59571;SDS011;59406;45.602;11.904;2022-12-07T05:56:04;23.25;;;13.02;;
59571;SDS011;59406;45.602;11.904;2022-12-07T05:58:31;26.63;;;12.70;;
59571;SDS011;59406;45.602;11.904;2022-12-07T06:01:15;26.17;;;13.65;;
59571;SDS011;59406;45.602;11.904;2022-12-07T06:03:41;24.20;;;12.77;;
59571;SDS011;59406;45.602;11.904;2022-12-07T06:06:07;18.08;;;10.73;;
59571;SDS011;59406;45.602;11.904;2022-12-07T06:08:33;16.30;;;9.97;;
59571;SDS011;59406;45.602;11.904;2022-12-07T06:10:59;18.15;;;10.77;;
59571;SDS011;59406;45.602;11.904;2022-12-07T06:13:45;24.63;;;12.65;;
59571;SDS011;59406;45.602;11.904;2022-12-07T06:16:10;20.17;;;11.43;;
59571;SDS011;59406;45.602;11.904;2022-12-07T06:18:36;24.77;;;13.23;;
59571;SDS011;59406;45.602;11.904;2022-12-07T06:21:02;26.45;;;14.38;;
59571;SDS011;59406;45.602;11.904;2022-12-07T06:23:29;24.35;;;12.80;;
59571;SDS011;59406;45.602;11.904;2022-12-07T06:25:54;21.23;;;10.70;;
59571;SDS011;59406;45.602;11.904;2022-12-07T06:28:20;26.42;;;12.80;;
59571;SDS011;59406;45.602;11.904;2022-12-07T06:30:46;21.17;;;11.45;;
59571;SDS011;59406;45.602;11.904;2022-12-07T06:33:12;24.83;;;15.10;;
59571;SDS011;59406;45.602;11.904;2022-12-07T06:35:38;27.77;;;14.90;;
59571;SDS011;59406;45.602;11.904;2022-12-07T06:38:04;20.40;;;12.00;;
59571;SDS011;59406;45.602;11.904;2022-12-07T06:40:30;21.17;;;12.57;;
59571;SDS011;59406;45.602;11.904;2022-12-07T06:42:56;25.93;;;15.83;;
59571;SDS011;59406;45.602;11.904;2022-12-07T06:45:22;19.98;;;14.18;;
59571;SDS011;59406;45.602;11.904;2022-12-07T06:47:48;20.92;;;12.15;;
59571;SDS011;59406;45.602;11.904;2022-12-07T06:50:14;27.02;;;15.98;;
59571;SDS011;59406;45.602;11.904;2022-12-07T06:52:39;24.30;;;13.67;;
59571;SDS011;59406;45.602;11.904;2022-12-07T06:55:06;22.95;;;13.60;;
59571;SDS011;59406;45.602;11.904;2022-12-07T06:57:32;20.58;;;12.98;;
59571;SDS011;59406;45.602;11.904;2022-12-07T06:59:58;16.63;;;9.73;;
59571;SDS011;59406;45.602;11.904;2022-12-07T07:02:23;21.00;;;12.75;;
59571;SDS011;59406;45.602;11.904;2022-12-07T07:04:49;20.45;;;11.40;;
59571;SDS011;59406;45.602;11.904;2022-12-07T07:07:15;30.43;;;15.67;;
59571;SDS011;59406;45.602;11.904;2022-12-07T07:09:41;30.08;;;15.38;;
59571;SDS011;59406;45.602;11.904;2022-12-07T07:12:07;22.60;;;13.70;;
59571;SDS011;59406;45.602;11.904;2022-12-07T07:14:33;28.73;;;16.98;;
59571;SDS011;59406;45.602;11.904;2022-12-07T07:16:59;27.27;;;16.10;;
59571;SDS011;59406;45.602;11.904;2022-12-07T07:19:25;17.92;;;10.95;;
59571;SDS011;59406;45.602;11.904;2022-12-07T07:21:51;18.77;;;11.55;;
59571;SDS011;59406;45.602;11.904;2022-12-07T07:24:17;19.58;;;10.75;;
59571;SDS011;59406;45.602;11.904;2022-12-07T07:26:43;19.02;;;11.95;;
59571;SDS011;59406;45.602;11.904;2022-12-07T07:29:09;29.20;;;16.70;;
59571;SDS011;59406;45.602;11.904;2022-12-07T07:31:35;30.85;;;16.88;;
59571;SDS011;59406;45.602;11.904;2022-12-07T07:34:02;33.15;;;19.70;;
59571;SDS011;59406;45.602;11.904;2022-12-07T07:36:28;32.10;;;18.77;;
59571;SDS011;59406;45.602;11.904;2022-12-07T07:38:54;29.00;;;15.70;;
59571;SDS011;59406;45.602;11.904;2022-12-07T07:41:20;24.23;;;14.20;;
59571;SDS011;59406;45.602;11.904;2022-12-07T07:43:46;34.78;;;18.42;;
59571;SDS011;59406;45.602;11.904;2022-12-07T07:46:11;23.67;;;13.53;;
59571;SDS011;59406;45.602;11.904;2022-12-07T07:48:37;28.25;;;15.80;;
59571;SDS011;59406;45.602;11.904;2022-12-07T07:51:07;24.33;;;13.38;;
59571;SDS011;59406;45.602;11.904;2022-12-07T07:53:33;25.00;;;12.97;;
59571;SDS011;59406;45.602;11.904;2022-12-07T07:55:59;24.63;;;15.13;;
59571;SDS011;59406;45.602;11.904;2022-12-07T07:58:26;22.30;;;13.32;;
59571;SDS011;59406;45.602;11.904;2022-12-07T08:00:52;29.48;;;17.17;;
59571;SDS011;59406;45.602;11.904;2022-12-07T08:03:19;24.40;;;15.02;;
59571;SDS011;59406;45.602;11.904;2022-12-07T08:05:45;32.07;;;17.50;;
59571;SDS011;59406;45.602;11.904;2022-12-07T08:08:11;32.53;;;19.25;;
59571;SDS011;59406;45.602;11.904;2022-12-07T08:10:37;25.13;;;16.17;;
59571;SDS011;59406;45.602;11.904;2022-12-07T08:13:03;28.20;;;17.10;;
59571;SDS011;59406;45.602;11.904;2022-12-07T08:15:39;24.70;;;15.77;;
59571;SDS011;59406;45.602;11.904;2022-12-07T08:18:08;27.85;;;17.13;;
59571;SDS011;59406;45.602;11.904;2022-12-07T08:20:34;27.45;;;18.10;;
59571;SDS011;59406;45.602;11.904;2022-12-07T08:23:01;22.83;;;13.70;;
59571;SDS011;59406;45.602;11.904;2022-12-07T08:25:27;32.42;;;17.95;;
59571;SDS011;59406;45.602;11.904;2022-12-07T08:27:53;29.67;;;17.00;;
59571;SDS011;59406;45.602;11.904;2022-12-07T08:30:20;26.35;;;15.65;;
59571;SDS011;59406;45.602;11.904;2022-12-07T08:32:47;23.77;;;14.88;;
59571;SDS011;59406;45.602;11.904;2022-12-07T08:35:14;26.30;;;15.45;;
59571;SDS011;59406;45.602;11.904;2022-12-07T08:37:40;27.10;;;17.40;;
59571;SDS011;59406;45.602;11.904;2022-12-07T08:40:07;25.80;;;16.58;;
59571;SDS011;59406;45.602;11.904;2022-12-07T08:42:34;27.52;;;18.02;;
59571;SDS011;59406;45.602;11.904;2022-12-07T08:45:06;30.67;;;17.50;;
59571;SDS011;59406;45.602;11.904;2022-12-07T08:47:35;22.98;;;15.65;;
59571;SDS011;59406;45.602;11.904;2022-12-07T08:50:04;24.63;;;15.17;;
59571;SDS011;59406;45.602;11.904;2022-12-07T08:52:32;24.27;;;15.20;;
59571;SDS011;59406;45.602;11.904;2022-12-07T08:55:00;22.42;;;14.30;;
59571;SDS011;59406;45.602;11.904;2022-12-07T08:57:27;21.02;;;14.15;;
59571;SDS011;59406;45.602;11.904;2022-12-07T08:59:54;16.17;;;11.65;;
59571;SDS011;59406;45.602;11.904;2022-12-07T09:02:21;17.63;;;11.10;;
59571;SDS011;59406;45.602;11.904;2022-12-07T09:04:47;19.52;;;13.82;;
59571;SDS011;59406;45.602;11.904;2022-12-07T09:07:13;21.40;;;14.52;;
59571;SDS011;59406;45.602;11.904;2022-12-07T09:09:39;16.95;;;12.18;;
59571;SDS011;59406;45.602;11.904;2022-12-07T09:12:05;19.75;;;12.77;;
59571;SDS011;59406;45.602;11.904;2022-12-07T09:14:31;19.87;;;13.47;;
59571;SDS011;59406;45.602;11.904;2022-12-07T09:17:07;19.15;;;12.45;;
59571;SDS011;59406;45.602;11.904;2022-12-07T09:19:34;18.58;;;10.98;;
59571;SDS011;59406;45.602;11.904;2022-12-07T09:22:00;16.65;;;11.18;;
59571;SDS011;59406;45.602;11.904;2022-12-07T09:24:26;15.63;;;9.70;;
59571;SDS011;59406;45.602;11.904;2022-12-07T09:26:52;14.80;;;9.70;;
59571;SDS011;59406;45.602;11.904;2022-12-07T09:29:18;16.40;;;9.68;;
59571;SDS011;59406;45.602;11.904;2022-12-07T09:31:44;15.38;;;10.80;;
59571;SDS011;59406;45.602;11.904;2022-12-07T09:34:10;12.88;;;9.02;;
59571;SDS011;59406;45.602;11.904;2022-12-07T09:36:36;16.17;;;11.47;;
59571;SDS011;59406;45.602;11.904;2022-12-07T09:39:02;15.95;;;10.73;;
59571;SDS011;59406;45.602;11.904;2022-12-07T09:41:29;16.02;;;10.27;;
59571;SDS011;59406;45.602;11.904;2022-12-07T09:43:59;12.75;;;8.27;;
59571;SDS011;59406;45.602;11.904;2022-12-07T09:46:32;18.77;;;9.57;;
59571;SDS011;59406;45.602;11.904;2022-12-07T09:49:02;13.15;;;8.98;;
59571;SDS011;59406;45.602;11.904;2022-12-07T09:51:30;11.98;;;9.38;;
59571;SDS011;59406;45.602;11.904;2022-12-07T09:53:57;18.02;;;8.43;;
59571;SDS011;59406;45.602;11.904;2022-12-07T09:56:23;11.85;;;7.47;;
59571;SDS011;59406;45.602;11.904;2022-12-07T09:58:51;17.53;;;11.00;;
59571;SDS011;59406;45.602;11.904;2022-12-07T10:01:23;13.90;;;9.38;;
59571;SDS011;59406;45.602;11.904;2022-12-07T10:03:50;13.65;;;9.18;;
59571;SDS011;59406;45.602;11.904;2022-12-07T10:06:16;13.15;;;9.02;;
59571;SDS011;59406;45.602;11.904;2022-12-07T10:08:43;13.70;;;8.40;;
59571;SDS011;59406;45.602;11.904;2022-12-07T10:11:10;15.60;;;9.32;;
59571;SDS011;59406;45.602;11.904;2022-12-07T10:16:02;13.88;;;9.48;;
59571;SDS011;59406;45.602;11.904;2022-12-07T10:18:38;14.70;;;10.05;;
59571;SDS011;59406;45.602;11.904;2022-12-07T10:21:16;14.23;;;9.57;;
59571;SDS011;59406;45.602;11.904;2022-12-07T10:24:00;11.75;;;9.02;;
59571;SDS011;59406;45.602;11.904;2022-12-07T10:26:48;13.88;;;8.85;;
59571;SDS011;59406;45.602;11.904;2022-12-07T10:32:06;14.77;;;9.40;;
59571;SDS011;59406;45.602;11.904;2022-12-07T10:34:59;12.83;;;9.30;;
59571;SDS011;59406;45.602;11.904;2022-12-07T10:37:49;12.88;;;8.52;;
59571;SDS011;59406;45.602;11.904;2022-12-07T10:45:32;12.75;;;8.38;;
59571;SDS011;59406;45.602;11.904;2022-12-07T10:56:20;11.32;;;7.68;;
59571;SDS011;59406;45.602;11.904;2022-12-07T10:58:59;10.73;;;6.38;;
59571;SDS011;59406;45.602;11.904;2022-12-07T11:12:43;10.32;;;6.18;;
59571;SDS011;59406;45.602;11.904;2022-12-07T11:38:56;7.60;;;4.45;;
59571;SDS011;59406;45.602;11.904;2022-12-07T11:41:29;7.77;;;4.77;;
59571;SDS011;59406;45.602;11.904;2022-12-07T11:44:02;7.18;;;3.67;;
59571;SDS011;59406;45.602;11.904;2022-12-07T11:46:42;6.22;;;3.60;;
59571;SDS011;59406;45.602;11.904;2022-12-07T11:49:13;7.57;;;4.10;;
59571;SDS011;59406;45.602;11.904;2022-12-07T11:51:53;10.10;;;5.43;;
59571;SDS011;59406;45.602;11.904;2022-12-07T11:54:29;8.43;;;4.17;;
59571;SDS011;59406;45.602;11.904;2022-12-07T11:57:02;7.10;;;1.83;;
59571;SDS011;59406;45.602;11.904;2022-12-07T11:59:36;4.28;;;1.38;;
59571;SDS011;59406;45.602;11.904;2022-12-07T12:02:18;3.95;;;1.30;;
59571;SDS011;59406;45.602;11.904;2022-12-07T12:04:55;3.88;;;1.40;;
59571;SDS011;59406;45.602;11.904;2022-12-07T12:07:25;4.50;;;1.60;;
59571;SDS011;59406;45.602;11.904;2022-12-07T12:09:59;4.47;;;1.30;;
59571;SDS011;59406;45.602;11.904;2022-12-07T12:17:52;4.67;;;1.60;;
59571;SDS011;59406;45.602;11.904;2022-12-07T12:20:46;5.43;;;2.30;;
59571;SDS011;59406;45.602;11.904;2022-12-07T12:23:48;5.30;;;2.53;;
59571;SDS011;59406;45.602;11.904;2022-12-07T12:26:21;5.25;;;1.70;;
59571;SDS011;59406;45.602;11.904;2022-12-07T12:29:07;4.32;;;2.22;;
59571;SDS011;59406;45.602;11.904;2022-12-07T12:31:47;5.30;;;2.70;;
59571;SDS011;59406;45.602;11.904;2022-12-07T12:34:32;5.35;;;2.47;;
59571;SDS011;59406;45.602;11.904;2022-12-07T12:37:03;5.40;;;2.72;;
59571;SDS011;59406;45.602;11.904;2022-12-07T12:42:57;5.25;;;2.50;;
59571;SDS011;59406;45.602;11.904;2022-12-07T12:45:41;7.83;;;3.37;;
59571;SDS011;59406;45.602;11.904;2022-12-07T12:51:35;5.80;;;3.20;;
59571;SDS011;59406;45.602;11.904;2022-12-07T12:54:08;5.78;;;2.80;;
59571;SDS011;59406;45.602;11.904;2022-12-07T13:03:00;6.13;;;2.95;;
59571;SDS011;59406;45.602;11.904;2022-12-07T13:05:21;6.45;;;2.83;;
59571;SDS011;59406;45.602;11.904;2022-12-07T13:08:15;5.93;;;2.83;;
59571;SDS011;59406;45.602;11.904;2022-12-07T13:10:46;6.38;;;2.90;;
59571;SDS011;59406;45.602;11.904;2022-12-07T13:15:45;6.28;;;2.90;;
59571;SDS011;59406;45.602;11.904;2022-12-07T13:26:22;5.87;;;2.73;;
59571;SDS011;59406;45.602;11.904;2022-12-07T13:29:12;7.68;;;3.58;;
59571;SDS011;59406;45.602;11.904;2022-12-07T13:31:46;7.57;;;3.80;;
59571;SDS011;59406;45.602;11.904;2022-12-07T13:34:34;6.78;;;3.58;;
59571;SDS011;59406;45.602;11.904;2022-12-07T13:37:01;6.80;;;3.80;;
59571;SDS011;59406;45.602;11.904;2022-12-07T13:39:35;6.10;;;3.17;;
59571;SDS011;59406;45.602;11.904;2022-12-07T13:42:33;7.15;;;3.50;;
59571;SDS011;59406;45.602;11.904;2022-12-07T13:45:13;6.60;;;3.22;;
59571;SDS011;59406;45.602;11.904;2022-12-07T13:47:48;6.47;;;2.90;;
59571;SDS011;59406;45.602;11.904;2022-12-07T13:50:28;7.88;;;3.45;;
59571;SDS011;59406;45.602;11.904;2022-12-07T13:52:57;7.30;;;3.70;;
59571;SDS011;59406;45.602;11.904;2022-12-07T13:55:25;5.85;;;3.00;;
59571;SDS011;59406;45.602;11.904;2022-12-07T13:57:52;13.90;;;4.13;;
59571;SDS011;59406;45.602;11.904;2022-12-07T14:00:23;7.75;;;4.20;;
59571;SDS011;59406;45.602;11.904;2022-12-07T14:03:01;6.43;;;3.28;;
59571;SDS011;59406;45.602;11.904;2022-12-07T14:05:29;13.47;;;4.40;;
59571;SDS011;59406;45.602;11.904;2022-12-07T14:10:31;10.88;;;4.15;;
59571;SDS011;59406;45.602;11.904;2022-12-07T14:13:00;6.88;;;3.78;;
59571;SDS011;59406;45.602;11.904;2022-12-07T14:15:28;6.82;;;3.88;;
59571;SDS011;59406;45.602;11.904;2022-12-07T14:17:56;5.90;;;3.27;;
59571;SDS011;59406;45.602;11.904;2022-12-07T14:20:39;5.90;;;3.17;;
59571;SDS011;59406;45.602;11.904;2022-12-07T14:23:21;8.48;;;3.50;;
59571;SDS011;59406;45.602;11.904;2022-12-07T14:25:52;7.78;;;4.00;;
59571;SDS011;59406;45.602;11.904;2022-12-07T14:28:26;7.75;;;3.90;;
59571;SDS011;59406;45.602;11.904;2022-12-07T14:30:57;7.97;;;3.40;;
59571;SDS011;59406;45.602;11.904;2022-12-07T14:33:23;9.30;;;3.90;;
59571;SDS011;59406;45.602;11.904;2022-12-07T14:35:50;9.90;;;3.75;;
59571;SDS011;59406;45.602;11.904;2022-12-07T14:38:20;7.68;;;4.13;;
59571;SDS011;59406;45.602;11.904;2022-12-07T14:40:47;7.28;;;3.38;;
59571;SDS011;59406;45.602;11.904;2022-12-07T14:43:14;8.03;;;3.87;;
59571;SDS011;59406;45.602;11.904;2022-12-07T14:45:42;10.45;;;3.92;;
59571;SDS011;59406;45.602;11.904;2022-12-07T14:48:11;15.60;;;4.43;;
59571;SDS011;59406;45.602;11.904;2022-12-07T14:50:40;11.15;;;4.10;;
59571;SDS011;59406;45.602;11.904;2022-12-07T14:53:16;11.82;;;4.32;;
59571;SDS011;59406;45.602;11.904;2022-12-07T14:55:43;32.07;;;5.40;;
59571;SDS011;59406;45.602;11.904;2022-12-07T14:58:16;13.93;;;3.83;;
59571;SDS011;59406;45.602;11.904;2022-12-07T15:00:43;12.90;;;3.88;;
59571;SDS011;59406;45.602;11.904;2022-12-07T15:03:10;10.43;;;3.45;;
59571;SDS011;59406;45.602;11.904;2022-12-07T15:05:38;10.63;;;3.75;;
59571;SDS011;59406;45.602;11.904;2022-12-07T15:08:05;10.70;;;4.03;;
59571;SDS011;59406;45.602;11.904;2022-12-07T15:10:32;8.13;;;3.65;;
59571;SDS011;59406;45.602;11.904;2022-12-07T15:12:59;13.80;;;4.28;;
59571;SDS011;59406;45.602;11.904;2022-12-07T15:15:45;11.13;;;4.07;;
59571;SDS011;59406;45.602;11.904;2022-12-07T15:18:11;10.13;;;4.30;;
59571;SDS011;59406;45.602;11.904;2022-12-07T15:20:37;13.07;;;5.15;;
59571;SDS011;59406;45.602;11.904;2022-12-07T15:23:04;10.00;;;3.50;;
59571;SDS011;59406;45.602;11.904;2022-12-07T15:25:30;11.10;;;4.88;;
59571;SDS011;59406;45.602;11.904;2022-12-07T15:27:56;10.05;;;3.92;;
59571;SDS011;59406;45.602;11.904;2022-12-07T15:30:22;7.00;;;3.40;;
59571;SDS011;59406;45.602;11.904;2022-12-07T15:32:51;10.90;;;5.03;;
59571;SDS011;59406;45.602;11.904;2022-12-07T15:35:18;10.05;;;4.65;;
59571;SDS011;59406;45.602;11.904;2022-12-07T15:37:44;17.40;;;5.70;;
59571;SDS011;59406;45.602;11.904;2022-12-07T15:40:11;16.50;;;6.20;;
59571;SDS011;59406;45.602;11.904;2022-12-07T15:42:38;15.03;;;5.60;;
59571;SDS011;59406;45.602;11.904;2022-12-07T15:45:04;16.80;;;7.00;;
59571;SDS011;59406;45.602;11.904;2022-12-07T15:47:40;13.75;;;5.28;;
59571;SDS011;59406;45.602;11.904;2022-12-07T15:50:09;18.10;;;6.50;;
59571;SDS011;59406;45.602;11.904;2022-12-07T15:52:38;9.33;;;4.37;;
59571;SDS011;59406;45.602;11.904;2022-12-07T15:55:04;15.20;;;6.47;;
59571;SDS011;59406;45.602;11.904;2022-12-07T15:57:31;10.98;;;4.72;;
59571;SDS011;59406;45.602;11.904;2022-12-07T15:59:58;9.07;;;4.82;;
59571;SDS011;59406;45.602;11.904;2022-12-07T16:02:25;13.68;;;7.40;;
59571;SDS011;59406;45.602;11.904;2022-12-07T16:04:51;18.80;;;8.57;;
59571;SDS011;59406;45.602;11.904;2022-12-07T16:07:18;16.48;;;8.27;;
59571;SDS011;59406;45.602;11.904;2022-12-07T16:09:44;12.45;;;6.50;;
59571;SDS011;59406;45.602;11.904;2022-12-07T16:12:11;16.17;;;7.03;;
59571;SDS011;59406;45.602;11.904;2022-12-07T16:14:38;13.13;;;7.17;;
59571;SDS011;59406;45.602;11.904;2022-12-07T16:17:06;22.48;;;9.35;;
59571;SDS011;59406;45.602;11.904;2022-12-07T16:19:34;20.60;;;10.90;;
59571;SDS011;59406;45.602;11.904;2022-12-07T16:22:01;28.70;;;14.27;;
59571;SDS011;59406;45.602;11.904;2022-12-07T16:24:29;21.52;;;13.10;;
59571;SDS011;59406;45.602;11.904;2022-12-07T16:26:55;19.67;;;10.73;;